Time;durP1;ratioP1;P1;durP2;ratioP2;P2;SDS_P1;SDS_P2;PMS_P1;PMS_P2;Temp;Humidity;BMP_temperature;BMP_pressure;BME280_temperature;BME280_humidity;BME280_pressure;Samples;Min_cycle;Max_cycle;Signal;HPM_P1;HPM_P2
2023/07/06 00:01:02;;;;;;;0.80;0.80;;;;;;;;;;6193434;23;20222;-85
2023/07/06 00:03:31;;;;;;;1.02;1.02;;;;;;;;;;6191658;23;20206;-84
2023/07/06 00:05:59;;;;;;;1.33;1.02;;;;;;;;;;6193234;23;20574;-84
2023/07/06 00:08:28;;;;;;;1.40;1.30;;;;;;;;;;6190955;23;20178;-85
2023/07/06 00:10:56;;;;;;;0.90;0.90;;;;;;;;;;6194388;23;20676;-84
2023/07/06 00:13:25;;;;;;;1.00;1.00;;;;;;;;;;6192836;23;20186;-85
2023/07/06 00:15:53;;;;;;;1.13;1.13;;;;;;;;;;6194089;23;20282;-85
2023/07/06 00:18:22;;;;;;;1.00;1.00;;;;;;;;;;6193713;23;20184;-84
2023/07/06 00:20:50;;;;;;;1.20;1.10;;;;;;;;;;6195982;23;20205;-84
2023/07/06 00:23:18;;;;;;;1.20;1.10;;;;;;;;;;6194466;23;20626;-85
2023/07/06 00:25:47;;;;;;;1.00;1.00;;;;;;;;;;6194682;23;20499;-85
2023/07/06 00:28:16;;;;;;;1.10;1.00;;;;;;;;;;6193810;23;20511;-84
2023/07/06 00:30:55;;;;;;;1.33;1.13;;;;;;;;;;6195321;23;20749;-85
2023/07/06 00:33:24;;;;;;;1.45;1.38;;;;;;;;;;6194441;23;20158;-85
2023/07/06 00:35:52;;;;;;;1.60;1.10;;;;;;;;;;6192382;23;20574;-84
2023/07/06 00:38:21;;;;;;;1.00;1.00;;;;;;;;;;6195027;23;20190;-85
2023/07/06 00:40:52;;;;;;;1.08;0.93;;;;;;;;;;6194578;23;20222;-85
2023/07/06 00:43:22;;;;;;;1.60;1.10;;;;;;;;;;6193981;23;20546;-85
2023/07/06 00:45:54;;;;;;;0.90;0.90;;;;;;;;;;6193175;23;20237;-83
2023/07/06 00:48:27;;;;;;;0.95;0.95;;;;;;;;;;6194746;23;20169;-84
2023/07/06 00:50:56;;;;;;;0.90;0.90;;;;;;;;;;6192953;23;20186;-85
2023/07/06 00:53:29;;;;;;;1.13;1.05;;;;;;;;;;6195144;23;20170;-85
2023/07/06 00:55:58;;;;;;;0.70;0.70;;;;;;;;;;6192214;23;20190;-84
2023/07/06 00:58:30;;;;;;;1.13;1.05;;;;;;;;;;6193496;23;20328;-84
2023/07/06 01:01:00;;;;;;;1.10;1.05;;;;;;;;;;6193385;23;20197;-85
2023/07/06 01:03:28;;;;;;;1.80;1.00;;;;;;;;;;6194437;23;20155;-85
2023/07/06 01:06:00;;;;;;;0.73;0.73;;;;;;;;;;6194425;23;20175;-83
2023/07/06 01:08:28;;;;;;;1.08;1.05;;;;;;;;;;6194049;23;20203;-84
2023/07/06 01:10:59;;;;;;;0.80;0.80;;;;;;;;;;6192485;23;20194;-84
2023/07/06 01:13:27;;;;;;;1.40;1.30;;;;;;;;;;6194232;23;20162;-84
2023/07/06 01:16:05;;;;;;;2.17;1.20;;;;;;;;;;6192286;23;20193;-83
2023/07/06 01:18:47;;;;;;;3.17;1.10;;;;;;;;;;6193970;23;20163;-84
2023/07/06 01:21:21;;;;;;;1.27;1.17;;;;;;;;;;6194874;23;20190;-84
2023/07/06 01:24:52;;;;;;;1.30;1.20;;;;;;;;;;6193348;23;20247;-85
2023/07/06 01:27:43;;;;;;;0.95;0.95;;;;;;;;;;6101518;23;20181;-85
2023/07/06 01:30:45;;;;;;;1.92;1.10;;;;;;;;;;6194741;23;20198;-82
2023/07/06 01:33:18;;;;;;;0.80;0.80;;;;;;;;;;6188628;23;20198;-85
2023/07/06 01:35:52;;;;;;;1.02;0.95;;;;;;;;;;6193419;23;20242;-85
2023/07/06 01:38:22;;;;;;;2.20;1.13;;;;;;;;;;6196580;23;20170;-85
2023/07/06 01:40:50;;;;;;;1.70;1.25;;;;;;;;;;6196672;23;20194;-85
2023/07/06 01:43:19;;;;;;;1.00;1.00;;;;;;;;;;6195657;23;20262;-85
2023/07/06 01:45:46;;;;;;;1.38;1.08;;;;;;;;;;6196256;23;20174;-85
2023/07/06 01:48:16;;;;;;;1.17;1.10;;;;;;;;;;6195881;23;20171;-85
2023/07/06 01:50:48;;;;;;;0.95;0.95;;;;;;;;;;6196236;23;20573;-85
2023/07/06 01:53:22;;;;;;;1.05;1.05;;;;;;;;;;6194431;23;20162;-85
2023/07/06 01:55:55;;;;;;;1.75;1.58;;;;;;;;;;6196545;23;20206;-84
2023/07/06 01:58:29;;;;;;;1.15;1.10;;;;;;;;;;6196846;23;20217;-85
2023/07/06 02:01:02;;;;;;;1.20;1.10;;;;;;;;;;6196228;23;20198;-85
2023/07/06 02:03:32;;;;;;;1.17;1.17;;;;;;;;;;6195211;23;20215;-85
2023/07/06 02:06:01;;;;;;;1.38;1.10;;;;;;;;;;6194383;23;20178;-84
2023/07/06 02:08:29;;;;;;;1.20;1.20;;;;;;;;;;6196558;23;20175;-85
2023/07/06 02:10:56;;;;;;;1.05;0.98;;;;;;;;;;6194430;23;20269;-85
2023/07/06 02:13:24;;;;;;;1.02;1.02;;;;;;;;;;6195642;23;20202;-85
2023/07/06 02:15:51;;;;;;;0.90;0.90;;;;;;;;;;6194674;23;20254;-84
2023/07/06 02:18:19;;;;;;;0.90;0.90;;;;;;;;;;6197119;23;20285;-85
2023/07/06 02:20:48;;;;;;;1.75;1.60;;;;;;;;;;6194615;23;20703;-84
2023/07/06 02:23:15;;;;;;;0.98;0.98;;;;;;;;;;6196202;23;20506;-85
2023/07/06 02:25:44;;;;;;;0.80;0.80;;;;;;;;;;6196611;23;20178;-84
2023/07/06 02:28:12;;;;;;;1.10;1.10;;;;;;;;;;6197167;23;20174;-86
2023/07/06 02:30:39;;;;;;;3.65;1.38;;;;;;;;;;6196243;23;20222;-85
2023/07/06 02:33:07;;;;;;;1.17;1.17;;;;;;;;;;6196693;23;20209;-85
2023/07/06 02:35:34;;;;;;;1.08;1.08;;;;;;;;;;6197500;23;20185;-83
2023/07/06 02:38:03;;;;;;;1.60;1.45;;;;;;;;;;6196646;23;20198;-85
2023/07/06 02:40:32;;;;;;;1.77;1.33;;;;;;;;;;6195967;23;20198;-84
2023/07/06 02:42:59;;;;;;;2.05;1.10;;;;;;;;;;6196268;23;20569;-84
2023/07/06 02:45:27;;;;;;;0.90;0.90;;;;;;;;;;6198259;23;20186;-83
2023/07/06 02:47:54;;;;;;;1.27;1.17;;;;;;;;;;6196267;23;20171;-84
2023/07/06 02:50:23;;;;;;;0.90;0.90;;;;;;;;;;6193400;23;20596;-87
2023/07/06 02:52:50;;;;;;;1.25;1.15;;;;;;;;;;6193131;23;20187;-87
2023/07/06 02:55:21;;;;;;;0.90;0.90;;;;;;;;;;6194462;23;20630;-86
2023/07/06 02:57:49;;;;;;;1.88;1.15;;;;;;;;;;6193584;23;20190;-85
2023/07/06 03:00:17;;;;;;;1.55;1.08;;;;;;;;;;6193052;23;20241;-85
2023/07/06 03:02:48;;;;;;;1.27;1.20;;;;;;;;;;6194284;23;20198;-85
2023/07/06 03:05:22;;;;;;;0.90;0.90;;;;;;;;;;6193676;23;20201;-86
2023/07/06 03:07:51;;;;;;;0.73;0.73;;;;;;;;;;6194048;23;20221;-87
2023/07/06 03:10:22;;;;;;;1.20;1.17;;;;;;;;;;6191360;23;20195;-87
2023/07/06 03:12:51;;;;;;;1.13;0.98;;;;;;;;;;6189213;23;20197;-87
2023/07/06 03:15:18;;;;;;;1.23;0.95;;;;;;;;;;6187714;23;20204;-88
2023/07/06 03:17:48;;;;;;;1.50;1.40;;;;;;;;;;6189312;23;20281;-85
2023/07/06 03:20:19;;;;;;;0.90;0.90;;;;;;;;;;6188869;23;20198;-86
2023/07/06 03:22:48;;;;;;;0.98;0.98;;;;;;;;;;6188726;23;20159;-87
2023/07/06 03:25:18;;;;;;;0.90;0.90;;;;;;;;;;6188587;23;20286;-87
2023/07/06 03:27:47;;;;;;;3.20;1.13;;;;;;;;;;6188835;23;20822;-86
2023/07/06 03:30:19;;;;;;;1.90;1.33;;;;;;;;;;6189596;23;20228;-87
2023/07/06 03:32:46;;;;;;;1.05;1.05;;;;;;;;;;6188797;23;20159;-86
2023/07/06 03:35:14;;;;;;;1.10;1.10;;;;;;;;;;6188583;23;20253;-85
2023/07/06 03:37:45;;;;;;;1.17;1.08;;;;;;;;;;6189238;23;20198;-87
2023/07/06 03:40:14;;;;;;;0.82;0.82;;;;;;;;;;6188519;23;20290;-87
2023/07/06 03:42:44;;;;;;;1.30;1.20;;;;;;;;;;6188559;23;20645;-85
2023/07/06 03:45:14;;;;;;;1.30;1.20;;;;;;;;;;6189094;23;20253;-87
2023/07/06 03:47:44;;;;;;;1.75;1.63;;;;;;;;;;6187864;23;20205;-85
2023/07/06 03:50:14;;;;;;;1.33;1.23;;;;;;;;;;6188559;23;20285;-86
2023/07/06 03:52:42;;;;;;;2.53;2.13;;;;;;;;;;6187609;23;20167;-86
2023/07/06 03:55:14;;;;;;;1.83;1.63;;;;;;;;;;6187357;23;20265;-87
2023/07/06 03:57:45;;;;;;;1.92;1.70;;;;;;;;;;6189537;23;20214;-86
2023/07/06 04:00:19;;;;;;;2.63;1.73;;;;;;;;;;6186246;23;20234;-86
2023/07/06 04:02:47;;;;;;;1.58;1.30;;;;;;;;;;6188166;23;20200;-87
2023/07/06 04:05:17;;;;;;;1.30;1.20;;;;;;;;;;6188248;23;20202;-86
2023/07/06 04:07:45;;;;;;;1.50;1.13;;;;;;;;;;6186893;23;20170;-87
2023/07/06 04:10:13;;;;;;;1.40;1.23;;;;;;;;;;6187637;23;20221;-86
2023/07/06 04:12:40;;;;;;;1.48;1.13;;;;;;;;;;6186082;23;20626;-86
2023/07/06 04:15:10;;;;;;;1.38;1.27;;;;;;;;;;6187571;23;20490;-86
2023/07/06 04:17:39;;;;;;;1.38;1.27;;;;;;;;;;6188450;23;20205;-87
2023/07/06 04:20:13;;;;;;;1.00;1.00;;;;;;;;;;6188505;23;20850;-85
2023/07/06 04:22:41;;;;;;;1.00;1.00;;;;;;;;;;6186582;23;20214;-85
2023/07/06 04:25:10;;;;;;;1.17;1.10;;;;;;;;;;6189101;23;20231;-86
2023/07/06 04:27:37;;;;;;;2.33;2.13;;;;;;;;;;6189477;23;20180;-86
2023/07/06 04:30:07;;;;;;;1.45;1.33;;;;;;;;;;6187895;23;20233;-86
2023/07/06 04:32:34;;;;;;;1.88;1.70;;;;;;;;;;6188836;23;20526;-85
2023/07/06 04:35:04;;;;;;;1.70;1.60;;;;;;;;;;6189541;23;20171;-85
2023/07/06 04:37:32;;;;;;;1.60;1.50;;;;;;;;;;6189476;23;20404;-85
2023/07/06 04:40:00;;;;;;;1.67;1.52;;;;;;;;;;6188833;23;20202;-87
2023/07/06 04:42:28;;;;;;;1.50;1.40;;;;;;;;;;6189378;23;20229;-86
2023/07/06 04:44:56;;;;;;;1.40;1.35;;;;;;;;;;6189250;23;20185;-87
2023/07/06 04:47:23;;;;;;;1.20;1.15;;;;;;;;;;6187925;23;20210;-85
2023/07/06 04:49:52;;;;;;;2.88;1.85;;;;;;;;;;6188790;23;20218;-86
2023/07/06 04:52:21;;;;;;;1.10;1.10;;;;;;;;;;6188183;23;20175;-86
2023/07/06 04:54:50;;;;;;;1.60;1.50;;;;;;;;;;6189307;23;20178;-86
2023/07/06 04:57:18;;;;;;;1.88;1.70;;;;;;;;;;6188662;23;20937;-88
2023/07/06 04:59:45;;;;;;;1.98;1.60;;;;;;;;;;6187477;23;20206;-88
2023/07/06 05:02:13;;;;;;;1.88;1.75;;;;;;;;;;6189384;23;20495;-88
2023/07/06 05:04:41;;;;;;;1.70;1.60;;;;;;;;;;6188632;23;20181;-87
2023/07/06 05:07:12;;;;;;;2.03;1.92;;;;;;;;;;6189903;23;20543;-86
2023/07/06 05:09:42;;;;;;;3.15;2.08;;;;;;;;;;6189696;23;20205;-87
2023/07/06 05:12:11;;;;;;;2.08;1.75;;;;;;;;;;6192470;23;20233;-86
2023/07/06 05:14:38;;;;;;;1.67;1.50;;;;;;;;;;6194680;23;20511;-86
2023/07/06 05:17:06;;;;;;;1.80;1.60;;;;;;;;;;6193977;23;20652;-86
2023/07/06 05:19:34;;;;;;;2.05;1.83;;;;;;;;;;6193514;23;20194;-85
2023/07/06 05:22:04;;;;;;;2.90;1.55;;;;;;;;;;6193237;23;20177;-86
2023/07/06 05:24:31;;;;;;;1.50;1.40;;;;;;;;;;6194109;23;20178;-86
2023/07/06 05:27:00;;;;;;;1.40;1.30;;;;;;;;;;6193138;23;20190;-85
2023/07/06 05:29:28;;;;;;;2.25;1.40;;;;;;;;;;6194091;23;20174;-85
2023/07/06 05:31:55;;;;;;;1.80;1.70;;;;;;;;;;6193954;23;20166;-84
2023/07/06 05:34:23;;;;;;;1.55;1.42;;;;;;;;;;6193508;23;20197;-85
2023/07/06 05:36:50;;;;;;;2.10;1.40;;;;;;;;;;6192610;23;20627;-85
2023/07/06 05:39:18;;;;;;;1.83;1.73;;;;;;;;;;6193259;23;20225;-86
2023/07/06 05:41:47;;;;;;;1.92;1.70;;;;;;;;;;6189594;23;20212;-88
2023/07/06 05:44:17;;;;;;;2.10;1.50;;;;;;;;;;6189152;23;20234;-88
2023/07/06 05:46:44;;;;;;;2.25;2.00;;;;;;;;;;6189677;23;20202;-88
2023/07/06 05:49:12;;;;;;;2.03;1.70;;;;;;;;;;6188252;23;20183;-88
2023/07/06 05:51:39;;;;;;;1.80;1.70;;;;;;;;;;6188311;23;20254;-87
2023/07/06 05:54:07;;;;;;;2.38;2.13;;;;;;;;;;6188645;23;20234;-88
2023/07/06 05:56:36;;;;;;;2.95;2.63;;;;;;;;;;6187357;23;20261;-88
2023/07/06 05:59:04;;;;;;;2.20;2.03;;;;;;;;;;6187794;23;20680;-88
2023/07/06 06:01:33;;;;;;;2.63;2.00;;;;;;;;;;6187700;23;20240;-88
2023/07/06 06:04:02;;;;;;;1.30;1.20;;;;;;;;;;6187823;23;20507;-88
2023/07/06 06:06:31;;;;;;;1.42;1.33;;;;;;;;;;6188274;23;20175;-88
2023/07/06 06:08:59;;;;;;;2.90;2.03;;;;;;;;;;6187227;23;20261;-88
2023/07/06 06:11:26;;;;;;;2.15;1.85;;;;;;;;;;6188803;23;20582;-89
2023/07/06 06:13:55;;;;;;;1.90;1.70;;;;;;;;;;6188549;23;20494;-88
2023/07/06 06:16:23;;;;;;;1.95;1.75;;;;;;;;;;6188579;23;20182;-88
2023/07/06 06:18:52;;;;;;;2.88;1.60;;;;;;;;;;6190196;23;20186;-87
2023/07/06 06:21:19;;;;;;;2.70;1.77;;;;;;;;;;6188993;23;20661;-88
2023/07/06 06:23:47;;;;;;;2.08;1.98;;;;;;;;;;6190830;23;20473;-87
2023/07/06 06:26:15;;;;;;;1.55;1.45;;;;;;;;;;6189148;23;20668;-88
2023/07/06 06:28:42;;;;;;;2.90;2.30;;;;;;;;;;6188405;23;20175;-87
2023/07/06 06:31:11;;;;;;;3.08;1.67;;;;;;;;;;6189672;23;20277;-87
2023/07/06 06:33:39;;;;;;;1.25;1.10;;;;;;;;;;6188614;23;20228;-87
2023/07/06 06:36:09;;;;;;;2.05;1.95;;;;;;;;;;6188475;23;20259;-87
2023/07/06 06:38:36;;;;;;;1.60;1.35;;;;;;;;;;6188492;23;20185;-87
2023/07/06 06:41:05;;;;;;;1.80;1.67;;;;;;;;;;6189399;23;20199;-87
2023/07/06 06:43:36;;;;;;;1.70;1.60;;;;;;;;;;6187945;23;20179;-87
2023/07/06 06:46:05;;;;;;;1.90;1.80;;;;;;;;;;6188967;23;20162;-87
2023/07/06 06:48:33;;;;;;;1.92;1.48;;;;;;;;;;6188232;23;20206;-85
2023/07/06 06:51:01;;;;;;;2.50;1.85;;;;;;;;;;6188335;23;20222;-88
2023/07/06 06:53:30;;;;;;;2.10;1.80;;;;;;;;;;6188502;23;20545;-88
2023/07/06 06:55:58;;;;;;;1.55;1.45;;;;;;;;;;6187992;23;20270;-87
2023/07/06 06:58:26;;;;;;;2.75;2.30;;;;;;;;;;6188312;23;20213;-86
2023/07/06 07:00:59;;;;;;;1.85;1.75;;;;;;;;;;6186887;23;20230;-87
2023/07/06 07:03:28;;;;;;;1.55;1.45;;;;;;;;;;6186838;23;20165;-88
2023/07/06 07:06:00;;;;;;;2.03;1.83;;;;;;;;;;6186796;23;20193;-88
2023/07/06 07:08:30;;;;;;;2.30;2.10;;;;;;;;;;6186910;23;20158;-87
2023/07/06 07:10:58;;;;;;;1.70;1.40;;;;;;;;;;6186885;23;20194;-87
2023/07/06 07:13:27;;;;;;;1.30;1.20;;;;;;;;;;6186745;23;20202;-87
2023/07/06 07:15:55;;;;;;;2.13;1.77;;;;;;;;;;6187327;23;20178;-88
2023/07/06 07:18:24;;;;;;;2.92;1.92;;;;;;;;;;6187323;23;20176;-88
2023/07/06 07:20:52;;;;;;;1.50;1.40;;;;;;;;;;6186928;23;20226;-87
2023/07/06 07:23:23;;;;;;;1.48;1.38;;;;;;;;;;6186792;23;20579;-86
2023/07/06 07:25:53;;;;;;;2.10;2.00;;;;;;;;;;6187586;23;20187;-88
2023/07/06 07:28:21;;;;;;;1.67;1.58;;;;;;;;;;6186896;23;20249;-88
2023/07/06 07:30:56;;;;;;;3.05;2.25;;;;;;;;;;6186648;23;20222;-88
2023/07/06 07:33:24;;;;;;;2.28;1.70;;;;;;;;;;6186113;23;20245;-87
2023/07/06 07:35:52;;;;;;;2.85;1.92;;;;;;;;;;6185997;23;20541;-88
2023/07/06 07:38:20;;;;;;;3.00;1.98;;;;;;;;;;6185771;23;20229;-87
2023/07/06 07:40:57;;;;;;;2.38;1.83;;;;;;;;;;6185594;23;20203;-88
2023/07/06 07:43:25;;;;;;;1.63;1.50;;;;;;;;;;6187145;23;20154;-87
2023/07/06 07:45:56;;;;;;;1.75;1.33;;;;;;;;;;6187409;23;20174;-88
2023/07/06 07:48:24;;;;;;;1.38;1.27;;;;;;;;;;6186446;23;20178;-88
2023/07/06 07:50:53;;;;;;;2.33;1.50;;;;;;;;;;6186596;23;20191;-88
2023/07/06 07:53:23;;;;;;;4.00;2.83;;;;;;;;;;6186455;23;20253;-88
2023/07/06 07:55:52;;;;;;;1.60;1.50;;;;;;;;;;6186863;23;20233;-87
2023/07/06 07:58:22;;;;;;;1.17;1.10;;;;;;;;;;6186764;23;20179;-88
2023/07/06 08:00:50;;;;;;;1.35;1.25;;;;;;;;;;6186766;23;20700;-87
2023/07/06 08:03:18;;;;;;;1.73;1.63;;;;;;;;;;6187265;23;20249;-87
2023/07/06 08:05:46;;;;;;;1.73;1.38;;;;;;;;;;6186501;23;20614;-87
2023/07/06 08:08:14;;;;;;;1.63;1.42;;;;;;;;;;6187441;23;20178;-87
2023/07/06 08:10:42;;;;;;;1.13;1.02;;;;;;;;;;6187255;23;20298;-87
2023/07/06 08:13:10;;;;;;;1.67;1.48;;;;;;;;;;6186606;23;20645;-87
2023/07/06 08:15:40;;;;;;;1.52;1.40;;;;;;;;;;6186553;23;20178;-88
2023/07/06 08:18:09;;;;;;;1.20;1.20;;;;;;;;;;6186408;23;20574;-87
2023/07/06 08:20:37;;;;;;;1.27;1.17;;;;;;;;;;6185865;23;20285;-87
2023/07/06 08:23:08;;;;;;;1.75;1.40;;;;;;;;;;6186141;23;20225;-87
2023/07/06 08:25:37;;;;;;;1.70;1.60;;;;;;;;;;6187109;23;20167;-88
2023/07/06 08:28:06;;;;;;;1.30;1.20;;;;;;;;;;6185788;23;20206;-88
2023/07/06 08:30:33;;;;;;;1.77;1.30;;;;;;;;;;6185853;23;20194;-87
2023/07/06 08:33:03;;;;;;;1.17;1.17;;;;;;;;;;6186771;23;20205;-88
2023/07/06 08:35:31;;;;;;;1.60;1.50;;;;;;;;;;6186252;23;20253;-87
2023/07/06 08:38:03;;;;;;;1.48;1.25;;;;;;;;;;6186989;23;20705;-87
2023/07/06 08:40:31;;;;;;;1.30;1.23;;;;;;;;;;6186339;23;20226;-87
2023/07/06 08:43:00;;;;;;;1.88;1.48;;;;;;;;;;6185603;23;20253;-87
2023/07/06 08:45:38;;;;;;;1.98;1.40;;;;;;;;;;6186822;23;20178;-88
2023/07/06 08:48:12;;;;;;;1.35;1.25;;;;;;;;;;6188521;23;20159;-87
2023/07/06 08:50:42;;;;;;;1.50;1.40;;;;;;;;;;6186533;23;20237;-89
2023/07/06 08:53:12;;;;;;;1.40;1.30;;;;;;;;;;6186273;23;20174;-87
2023/07/06 08:55:40;;;;;;;2.13;1.92;;;;;;;;;;6186465;23;20567;-90
2023/07/06 08:58:10;;;;;;;1.80;1.42;;;;;;;;;;6186536;23;20249;-89
2023/07/06 09:00:37;;;;;;;1.40;1.30;;;;;;;;;;6185867;23;20208;-87
2023/07/06 09:03:09;;;;;;;1.10;1.10;;;;;;;;;;6186394;23;20225;-88
2023/07/06 09:05:42;;;;;;;1.40;1.00;;;;;;;;;;6186926;23;20194;-89
2023/07/06 09:08:13;;;;;;;1.60;1.50;;;;;;;;;;6187307;23;20205;-88
2023/07/06 09:10:41;;;;;;;1.25;1.10;;;;;;;;;;6186602;23;20194;-87
2023/07/06 09:13:22;;;;;;;1.15;1.15;;;;;;;;;;6185628;23;20175;-88
2023/07/06 09:15:54;;;;;;;0.95;0.95;;;;;;;;;;6187521;23;20480;-88
2023/07/06 09:18:23;;;;;;;1.95;1.20;;;;;;;;;;6186489;23;20166;-89
2023/07/06 09:20:54;;;;;;;1.38;1.27;;;;;;;;;;6186341;23;20592;-88
2023/07/06 09:23:21;;;;;;;2.50;1.25;;;;;;;;;;6185966;23;20155;-88
2023/07/06 09:25:49;;;;;;;1.63;1.23;;;;;;;;;;6186659;23;20485;-88
2023/07/06 09:28:26;;;;;;;1.42;1.33;;;;;;;;;;6186360;23;20182;-88
2023/07/06 09:31:10;;;;;;;1.20;1.10;;;;;;;;;;6186640;23;20643;-87
2023/07/06 09:33:44;;;;;;;1.42;1.33;;;;;;;;;;6188075;23;20571;-88
2023/07/06 09:36:18;;;;;;;1.40;1.27;;;;;;;;;;6187059;23;20162;-87
2023/07/06 09:38:47;;;;;;;1.00;1.00;;;;;;;;;;6186383;23;20198;-88
2023/07/06 09:41:23;;;;;;;1.00;1.00;;;;;;;;;;6186883;23;20198;-87
2023/07/06 09:43:57;;;;;;;1.50;1.20;;;;;;;;;;6186419;23;20202;-87
2023/07/06 09:46:26;;;;;;;2.20;1.25;;;;;;;;;;6187128;23;20169;-88
2023/07/06 09:48:55;;;;;;;1.50;1.40;;;;;;;;;;6188211;23;20194;-88
2023/07/06 09:51:28;;;;;;;1.50;1.40;;;;;;;;;;6188227;23;20217;-88
2023/07/06 09:54:02;;;;;;;1.73;1.60;;;;;;;;;;6188014;23;20238;-88
2023/07/06 09:56:29;;;;;;;1.30;1.20;;;;;;;;;;6188253;23;20225;-88
2023/07/06 09:58:58;;;;;;;1.23;1.13;;;;;;;;;;6187688;23;20174;-88
2023/07/06 10:01:37;;;;;;;2.20;1.58;;;;;;;;;;6189162;23;20217;-86
2023/07/06 10:04:36;;;;;;;1.08;1.05;;;;;;;;;;6188239;23;20183;-87
2023/07/06 10:07:11;;;;;;;1.38;1.27;;;;;;;;;;6188784;23;20190;-87
2023/07/06 10:09:42;;;;;;;1.00;1.00;;;;;;;;;;6188504;23;20173;-88
2023/07/06 10:12:17;;;;;;;1.40;1.30;;;;;;;;;;6190387;23;20175;-88
2023/07/06 10:14:49;;;;;;;1.52;1.20;;;;;;;;;;6190307;23;20177;-88
2023/07/06 10:17:35;;;;;;;1.27;1.23;;;;;;;;;;6190205;23;20246;-88
2023/07/06 10:20:17;;;;;;;1.85;1.75;;;;;;;;;;6190354;23;20653;-87
2023/07/06 10:23:10;;;;;;;1.27;1.25;;;;;;;;;;6188813;23;20178;-88
2023/07/06 10:25:43;;;;;;;1.52;1.38;;;;;;;;;;6187808;23;20525;-88
2023/07/06 10:28:15;;;;;;;1.90;1.38;;;;;;;;;;6189650;23;20197;-88
2023/07/06 10:30:49;;;;;;;1.15;1.13;;;;;;;;;;6188896;23;20273;-88
2023/07/06 10:33:22;;;;;;;1.27;1.13;;;;;;;;;;6189525;23;20248;-88
2023/07/06 10:35:52;;;;;;;1.52;1.30;;;;;;;;;;6189100;23;20201;-88
2023/07/06 10:38:21;;;;;;;2.13;1.02;;;;;;;;;;6190628;23;20555;-89
2023/07/06 10:40:51;;;;;;;0.90;0.90;;;;;;;;;;6189287;23;20257;-88
2023/07/06 10:43:23;;;;;;;1.40;1.30;;;;;;;;;;6189496;23;20208;-89
2023/07/06 10:45:52;;;;;;;1.05;0.93;;;;;;;;;;6190020;23;20167;-89
2023/07/06 10:48:32;;;;;;;1.67;1.58;;;;;;;;;;6189874;23;20182;-88
2023/07/06 10:51:22;;;;;;;1.00;1.00;;;;;;;;;;6190010;23;20206;-88
2023/07/06 10:54:11;;;;;;;1.27;1.00;;;;;;;;;;6190217;23;20525;-87
2023/07/06 10:56:45;;;;;;;1.25;1.15;;;;;;;;;;6190169;23;20155;-87
2023/07/06 10:59:18;;;;;;;1.20;1.10;;;;;;;;;;6190957;23;20516;-87
2023/07/06 11:01:48;;;;;;;2.45;1.58;;;;;;;;;;6190331;23;20230;-90
2023/07/06 11:04:51;;;;;;;1.50;1.40;;;;;;;;;;6190755;23;20198;-87
2023/07/06 11:07:46;;;;;;;1.30;1.30;;;;;;;;;;6190399;23;20186;-85
2023/07/06 11:10:32;;;;;;;1.23;1.13;;;;;;;;;;6188817;23;20226;-91
2023/07/06 11:13:16;;;;;;;2.42;1.75;;;;;;;;;;6189611;23;20178;-90
2023/07/06 11:15:59;;;;;;;1.23;1.13;;;;;;;;;;6190500;23;20163;-88
2023/07/06 11:18:34;;;;;;;1.08;1.00;;;;;;;;;;6188944;23;20182;-90
2023/07/06 11:21:08;;;;;;;1.95;1.52;;;;;;;;;;6188978;23;20188;-89
2023/07/06 11:23:45;;;;;;;5.50;1.48;;;;;;;;;;6187815;23;20182;-91
2023/07/06 11:26:34;;;;;;;1.40;1.30;;;;;;;;;;6188004;23;20159;-91
2023/07/06 11:29:02;;;;;;;1.60;1.50;;;;;;;;;;6187250;23;20238;-91
2023/07/06 11:31:43;;;;;;;1.88;1.60;;;;;;;;;;6186491;23;20721;-90
2023/07/06 11:34:20;;;;;;;1.40;1.30;;;;;;;;;;6186320;23;20167;-90
2023/07/06 11:36:55;;;;;;;1.65;1.55;;;;;;;;;;6189415;23;20182;-91
2023/07/06 11:39:30;;;;;;;1.63;1.30;;;;;;;;;;6187647;23;20166;-91
2023/07/06 11:41:59;;;;;;;1.33;1.10;;;;;;;;;;6189220;23;20155;-90
2023/07/06 11:44:47;;;;;;;1.30;1.20;;;;;;;;;;6186166;23;20170;-92
2023/07/06 11:47:38;;;;;;;1.08;1.05;;;;;;;;;;6186918;23;20237;-90
2023/07/06 11:50:11;;;;;;;1.05;1.05;;;;;;;;;;6186706;23;20277;-89
2023/07/06 11:52:44;;;;;;;1.08;1.05;;;;;;;;;;6185875;23;20528;-90
2023/07/06 11:55:29;;;;;;;10.00;2.47;;;;;;;;;;6186264;23;20261;-88
2023/07/06 11:58:04;;;;;;;1.10;1.10;;;;;;;;;;6186187;23;20249;-90
2023/07/06 12:00:48;;;;;;;1.92;1.40;;;;;;;;;;6187797;23;20197;-89
2023/07/06 12:03:16;;;;;;;1.38;1.23;;;;;;;;;;6185627;23;20218;-89
2023/07/06 12:05:49;;;;;;;1.48;1.38;;;;;;;;;;6186207;23;20174;-90
2023/07/06 12:08:22;;;;;;;1.75;1.65;;;;;;;;;;6185958;23;20186;-89
2023/07/06 12:10:56;;;;;;;1.60;1.50;;;;;;;;;;6188092;23;20269;-88
2023/07/06 12:13:27;;;;;;;1.42;1.30;;;;;;;;;;6187962;23;20170;-88
2023/07/06 12:16:07;;;;;;;1.20;1.20;;;;;;;;;;6188131;23;20494;-89
2023/07/06 12:18:35;;;;;;;1.75;1.45;;;;;;;;;;6187337;23;20204;-88
2023/07/06 12:21:03;;;;;;;1.50;1.40;;;;;;;;;;6187312;23;20198;-88
2023/07/06 12:23:31;;;;;;;1.70;1.50;;;;;;;;;;6188764;23;20233;-90
2023/07/06 12:26:00;;;;;;;1.10;1.10;;;;;;;;;;6188009;23;20221;-89
2023/07/06 12:28:30;;;;;;;1.30;1.25;;;;;;;;;;6188018;23;20202;-88
2023/07/06 12:31:00;;;;;;;1.27;1.27;;;;;;;;;;6188180;23;20194;-89
2023/07/06 12:33:29;;;;;;;1.20;1.15;;;;;;;;;;6187748;23;20167;-89
2023/07/06 12:35:57;;;;;;;0.90;0.90;;;;;;;;;;6187482;23;20193;-88
2023/07/06 12:38:25;;;;;;;1.00;1.00;;;;;;;;;;6186930;23;20205;-88
2023/07/06 12:41:12;;;;;;;1.00;1.00;;;;;;;;;;6186963;23;20191;-88
2023/07/06 12:43:39;;;;;;;1.30;1.20;;;;;;;;;;6187488;23;20693;-89
2023/07/06 12:46:09;;;;;;;1.50;1.27;;;;;;;;;;6186870;23;20234;-88
2023/07/06 12:48:41;;;;;;;1.58;1.48;;;;;;;;;;6188452;23;20553;-89
2023/07/06 12:51:12;;;;;;;1.15;0.98;;;;;;;;;;6187357;23;20229;-88
2023/07/06 12:53:39;;;;;;;1.40;1.30;;;;;;;;;;6188448;23;20158;-89
2023/07/06 12:56:13;;;;;;;1.30;1.20;;;;;;;;;;6187913;23;20634;-89
2023/07/06 12:58:46;;;;;;;1.00;1.00;;;;;;;;;;6188400;23;20174;-88
2023/07/06 13:01:17;;;;;;;3.30;1.30;;;;;;;;;;6187574;23;20662;-89
2023/07/06 13:03:56;;;;;;;1.48;1.38;;;;;;;;;;6187252;23;20297;-88
2023/07/06 13:06:25;;;;;;;1.33;1.25;;;;;;;;;;6188259;23;20174;-89
2023/07/06 13:08:55;;;;;;;1.50;1.40;;;;;;;;;;6187859;23;20185;-88
2023/07/06 13:11:26;;;;;;;2.00;1.55;;;;;;;;;;6187977;23;20197;-88
2023/07/06 13:13:57;;;;;;;2.00;1.80;;;;;;;;;;6187627;23;20613;-88
2023/07/06 13:16:24;;;;;;;1.45;1.45;;;;;;;;;;6188489;23;20197;-88
2023/07/06 13:18:52;;;;;;;1.65;1.55;;;;;;;;;;6187542;23;20189;-89
2023/07/06 13:21:23;;;;;;;2.30;1.50;;;;;;;;;;6188079;23;20222;-89
2023/07/06 13:23:54;;;;;;;1.65;1.55;;;;;;;;;;6187423;23;20245;-89
2023/07/06 13:26:26;;;;;;;1.50;1.40;;;;;;;;;;6188634;23;20212;-89
2023/07/06 13:28:53;;;;;;;1.30;1.20;;;;;;;;;;6188593;23;20171;-89
2023/07/06 13:31:21;;;;;;;1.33;1.23;;;;;;;;;;6188784;23;20297;-88
2023/07/06 13:33:48;;;;;;;1.02;1.02;;;;;;;;;;6187877;23;20179;-89
2023/07/06 13:36:20;;;;;;;0.90;0.90;;;;;;;;;;6189529;23;20610;-89
2023/07/06 13:38:48;;;;;;;1.35;1.25;;;;;;;;;;6187335;23;20211;-90
2023/07/06 13:41:19;;;;;;;1.10;1.10;;;;;;;;;;6187553;23;20280;-89
2023/07/06 13:43:48;;;;;;;1.38;1.27;;;;;;;;;;6186740;23;20183;-87
2023/07/06 13:46:20;;;;;;;1.25;1.23;;;;;;;;;;6186835;23;20507;-89
2023/07/06 13:48:48;;;;;;;1.80;1.67;;;;;;;;;;6187716;23;20165;-90
2023/07/06 13:51:16;;;;;;;0.93;0.93;;;;;;;;;;6186298;23;20190;-89
2023/07/06 13:53:47;;;;;;;3.55;1.70;;;;;;;;;;6186439;23;20700;-89
2023/07/06 13:56:14;;;;;;;1.33;1.23;;;;;;;;;;6186436;23;20198;-89
2023/07/06 13:58:43;;;;;;;2.33;1.83;;;;;;;;;;6186581;23;20174;-89
2023/07/06 14:01:14;;;;;;;0.90;0.90;;;;;;;;;;6186817;23;20194;-88
2023/07/06 14:03:44;;;;;;;1.05;1.05;;;;;;;;;;6186879;23;20278;-88
2023/07/06 14:06:12;;;;;;;1.10;1.10;;;;;;;;;;6187310;23;20213;-89
2023/07/06 14:08:40;;;;;;;1.00;1.00;;;;;;;;;;6187568;23;20638;-87
2023/07/06 14:11:08;;;;;;;1.20;1.20;;;;;;;;;;6187409;23;20273;-89
2023/07/06 14:13:35;;;;;;;1.48;1.02;;;;;;;;;;6186297;23;20198;-88
2023/07/06 14:16:04;;;;;;;1.20;1.10;;;;;;;;;;6186705;23;20214;-88
2023/07/06 14:18:33;;;;;;;1.13;1.02;;;;;;;;;;6187310;23;20178;-88
2023/07/06 14:21:05;;;;;;;1.45;1.08;;;;;;;;;;6186310;23;20226;-88
2023/07/06 14:23:34;;;;;;;1.10;1.10;;;;;;;;;;6186773;23;20486;-90
2023/07/06 14:26:02;;;;;;;1.08;1.08;;;;;;;;;;6187090;23;20179;-90
2023/07/06 14:28:30;;;;;;;1.00;1.00;;;;;;;;;;6187096;23;20254;-90
2023/07/06 14:31:02;;;;;;;1.17;1.17;;;;;;;;;;6186874;23;20198;-89
2023/07/06 14:33:31;;;;;;;1.00;1.00;;;;;;;;;;6186598;23;20591;-86
2023/07/06 14:35:59;;;;;;;1.00;1.00;;;;;;;;;;6186877;23;20257;-89
2023/07/06 14:38:27;;;;;;;1.35;1.25;;;;;;;;;;6186802;23;20567;-89
2023/07/06 14:40:54;;;;;;;0.90;0.90;;;;;;;;;;6186694;23;20222;-89
2023/07/06 14:43:23;;;;;;;1.90;1.40;;;;;;;;;;6186785;23;20355;-88
2023/07/06 14:45:51;;;;;;;1.40;1.30;;;;;;;;;;6187017;23;20688;-88
2023/07/06 14:48:18;;;;;;;1.13;1.10;;;;;;;;;;6187103;23;20174;-88
2023/07/06 14:50:47;;;;;;;1.27;1.17;;;;;;;;;;6187241;23;20273;-89
2023/07/06 14:53:15;;;;;;;1.00;1.00;;;;;;;;;;6186607;23;20182;-88
2023/07/06 14:55:46;;;;;;;1.10;1.10;;;;;;;;;;6186643;23;20191;-88
2023/07/06 14:58:17;;;;;;;1.35;1.27;;;;;;;;;;6186864;23;20658;-89
2023/07/06 15:00:44;;;;;;;1.98;1.13;;;;;;;;;;6186764;23;20194;-88
2023/07/06 15:03:11;;;;;;;1.17;1.08;;;;;;;;;;6186453;23;20178;-88
2023/07/06 15:05:41;;;;;;;0.90;0.90;;;;;;;;;;6185230;23;20605;-88